Time;durP1;ratioP1;P1;durP2;ratioP2;P2;SDS_P1;SDS_P2;PMS_P1;PMS_P2;Temp;Humidity;BMP_temperature;BMP_pressure;BME280_temperature;BME280_humidity;BME280_pressure;Samples;Min_cycle;Max_cycle;Signal;HPM_P1;HPM_P2
2022/01/19 00:00:57;;;;;;;10.80;3.60;;;;;;;4.40;100.00;103048.00;6220329;28;20418;-73
2022/01/19 00:04:00;;;;;;;7.78;3.78;;;;;;;4.40;100.00;103040.19;6221148;28;20054;-73
2022/01/19 00:07:02;;;;;;;6.22;3.08;;;;;;;4.39;100.00;103041.03;6199658;28;20520;-74
2022/01/19 00:10:09;;;;;;;8.30;3.33;;;;;;;4.40;100.00;103045.38;6196628;28;20042;-74
2022/01/19 00:13:10;;;;;;;11.05;4.18;;;;;;;4.41;100.00;103036.75;6196969;28;20120;-73
2022/01/19 00:16:11;;;;;;;10.00;4.03;;;;;;;4.43;100.00;103031.53;6196721;28;20422;-74
2022/01/19 00:19:14;;;;;;;6.43;3.05;;;;;;;4.43;100.00;103040.22;6198905;28;20406;-73
2022/01/19 00:22:15;;;;;;;16.90;3.85;;;;;;;4.44;100.00;103025.47;6201054;28;20062;-73
2022/01/19 00:25:17;;;;;;;6.35;2.95;;;;;;;4.43;100.00;103014.19;6223764;28;20054;-74
2022/01/19 00:28:18;;;;;;;9.57;3.75;;;;;;;4.42;100.00;103009.84;6225188;28;20054;-73
2022/01/19 00:31:20;;;;;;;13.35;4.35;;;;;;;4.44;100.00;102989.88;6223974;28;20057;-73
2022/01/19 00:34:22;;;;;;;8.50;3.97;;;;;;;4.46;100.00;102963.88;6224270;28;20050;-73
2022/01/19 00:37:24;;;;;;;11.75;4.00;;;;;;;4.46;100.00;102949.13;6225003;28;20061;-73
2022/01/19 00:40:25;;;;;;;6.57;3.35;;;;;;;4.43;100.00;102946.50;6224851;28;20052;-73
2022/01/19 00:43:27;;;;;;;6.97;3.67;;;;;;;4.41;100.00;102949.97;6224795;28;20416;-73
2022/01/19 00:46:28;;;;;;;7.22;3.45;;;;;;;4.39;100.00;102944.72;6224789;28;20049;-73
2022/01/19 00:49:31;;;;;;;9.80;3.28;;;;;;;4.37;100.00;102949.06;6224898;28;20486;-73
2022/01/19 00:52:35;;;;;;;7.40;3.15;;;;;;;4.40;100.00;102943.00;5933698;28;8419863;-74
2022/01/19 00:55:36;;;;;;;10.88;3.70;;;;;;;4.42;100.00;102959.50;6204519;28;20046;-74
2022/01/19 00:58:37;;;;;;;12.45;4.97;;;;;;;4.42;100.00;102957.78;6202135;28;20063;-74
2022/01/19 01:01:39;;;;;;;8.00;4.28;;;;;;;4.44;100.00;102960.38;6201310;28;20065;-74
2022/01/19 01:04:41;;;;;;;7.78;3.95;;;;;;;4.43;100.00;102949.09;6201705;28;20054;-74
2022/01/19 01:07:43;;;;;;;12.50;3.88;;;;;;;4.44;100.00;102943.03;6211829;28;20057;-74
2022/01/19 01:10:45;;;;;;;10.90;4.47;;;;;;;4.48;100.00;102949.13;6225763;28;20046;-74
2022/01/19 01:18:17;;;;;;;10.07;3.22;;;;;;;4.42;100.00;102916.13;6208629;28;20053;-74
2022/01/19 01:20:38;;;;;;;7.88;3.92;;;;;;;4.44;100.00;102918.72;6225468;28;20057;-75
2022/01/19 01:23:40;;;;;;;10.48;3.95;;;;;;;4.38;100.00;102916.09;6224146;28;20048;-74
2022/01/19 01:26:42;;;;;;;8.98;3.70;;;;;;;4.33;100.00;102922.13;6225747;28;20050;-73
2022/01/19 01:29:44;;;;;;;8.30;3.78;;;;;;;4.35;100.00;102929.06;6224923;28;20050;-74
2022/01/19 01:32:45;;;;;;;10.13;3.20;;;;;;;4.35;100.00;102919.53;6225251;28;20090;-74
2022/01/19 01:35:48;;;;;;;13.95;4.95;;;;;;;4.36;100.00;102907.38;6224896;28;20061;-74
2022/01/19 01:38:49;;;;;;;12.50;4.85;;;;;;;4.33;100.00;102901.31;6225397;28;20057;-74
2022/01/19 01:41:51;;;;;;;8.55;3.70;;;;;;;4.31;100.00;102889.13;6224691;28;20045;-74
2022/01/19 01:44:55;;;;;;;8.85;3.28;;;;;;;4.30;100.00;102872.66;6225563;28;20433;-74
2022/01/19 01:48:06;;;;;;;15.15;5.22;;;;;;;4.23;100.00;102852.66;6225022;28;20053;-75
2022/01/19 01:54:29;;;;;;;6.25;3.20;;;;;;;4.22;100.00;102824.00;6221151;28;20054;-74
2022/01/19 01:57:30;;;;;;;6.25;3.15;;;;;;;4.19;100.00;102821.41;6200721;28;20073;-74
2022/01/19 02:00:32;;;;;;;10.25;3.92;;;;;;;4.14;100.00;102828.31;6200107;28;20053;-74
2022/01/19 02:03:38;;;;;;;14.52;3.83;;;;;;;4.11;100.00;102849.97;6200473;28;20510;-74
2022/01/19 02:06:58;;;;;;;7.55;2.65;;;;;;;4.12;100.00;102843.03;6200455;28;20430;-74
2022/01/19 02:10:03;;;;;;;11.52;3.20;;;;;;;4.10;100.00;102831.75;6200210;28;20073;-74
2022/01/19 02:16:47;;;;;;;15.30;3.22;;;;;;;3.99;100.00;102798.69;6125627;29;20063;-74
2022/01/19 02:23:17;;;;;;;10.70;3.80;;;;;;;3.92;100.00;102785.66;6200094;28;20054;-74
2022/01/19 02:26:25;;;;;;;10.20;4.28;;;;;;;3.87;100.00;102782.16;6201066;28;20046;-74
2022/01/19 02:30:13;;;;;;;8.80;3.70;;;;;;;3.84;100.00;102770.00;6199843;28;20611;-74
2022/01/19 02:36:49;;;;;;;9.13;3.58;;;;;;;3.94;100.00;102757.91;6221887;28;20045;-76
2022/01/19 02:40:14;;;;;;;15.23;4.10;;;;;;;3.93;100.00;102767.47;6223604;28;20183;-76
2022/01/19 02:43:21;;;;;;;11.70;4.40;;;;;;;3.92;100.00;102757.94;6223780;28;20050;-75
2022/01/19 02:46:41;;;;;;;17.00;4.45;;;;;;;3.96;100.00;102764.03;6215769;28;20184;-74
2022/01/19 02:49:42;;;;;;;10.52;3.67;;;;;;;3.97;100.00;102742.34;6223867;28;20050;-74
2022/01/19 02:52:45;;;;;;;8.07;4.30;;;;;;;4.00;100.00;102730.25;6223359;28;20053;-74
2022/01/19 02:55:47;;;;;;;15.10;4.88;;;;;;;4.02;100.00;102723.28;6218547;28;20425;-74
2022/01/19 02:58:53;;;;;;;9.20;3.60;;;;;;;4.01;100.00;102720.69;6218095;28;20049;-74
2022/01/19 03:08:46;;;;;;;10.93;4.03;;;;;;;3.99;100.00;102712.88;6206030;28;20502;-74
2022/01/19 03:11:48;;;;;;;16.52;3.90;;;;;;;4.01;100.00;102695.56;6222791;28;20050;-74
2022/01/19 03:14:49;;;;;;;8.68;3.88;;;;;;;4.04;100.00;102695.56;6223191;28;20057;-74
2022/01/19 03:17:53;;;;;;;10.90;4.60;;;;;;;4.00;100.00;102680.81;6223026;28;20050;-74
2022/01/19 03:20:54;;;;;;;7.45;3.67;;;;;;;4.01;100.00;102679.94;6222708;28;20053;-74
2022/01/19 03:23:57;;;;;;;9.63;3.63;;;;;;;4.02;100.00;102665.19;6221990;28;20054;-73
2022/01/19 03:26:59;;;;;;;8.55;4.40;;;;;;;4.00;100.00;102648.72;6216898;28;20050;-75
2022/01/19 03:30:00;;;;;;;10.82;4.53;;;;;;;3.99;100.00;102652.16;6221887;28;20061;-75
2022/01/19 03:33:01;;;;;;;8.27;4.22;;;;;;;3.97;100.00;102649.56;6222699;28;20508;-74
2022/01/19 03:36:03;;;;;;;12.20;4.80;;;;;;;3.96;100.00;102641.78;6222646;28;20045;-74
2022/01/19 03:39:06;;;;;;;8.48;4.15;;;;;;;3.98;100.00;102625.28;6222530;28;20057;-74
2022/01/19 03:42:08;;;;;;;13.27;5.15;;;;;;;3.95;100.00;102601.91;6222186;28;20046;-74
2022/01/19 03:45:10;;;;;;;12.57;4.88;;;;;;;3.95;100.00;102594.09;6222498;28;20413;-74
2022/01/19 03:48:28;;;;;;;13.73;5.00;;;;;;;3.91;100.00;102589.72;6222451;28;20065;-74
2022/01/19 03:51:30;;;;;;;12.50;5.60;;;;;;;3.87;100.00;102579.31;6197486;28;20046;-74
2022/01/19 03:54:35;;;;;;;13.75;4.88;;;;;;;3.80;100.00;102568.00;6198138;28;20058;-74
2022/01/19 03:57:37;;;;;;;14.25;5.60;;;;;;;3.75;100.00;102564.50;6210303;28;20046;-74
2022/01/19 04:00:42;;;;;;;13.02;5.22;;;;;;;3.70;100.00;102559.28;6222171;28;20049;-74
2022/01/19 04:04:05;;;;;;;19.15;5.78;;;;;;;3.55;100.00;102554.91;6221974;28;20053;-74
2022/01/19 04:07:09;;;;;;;15.13;5.95;;;;;;;3.40;100.00;102552.22;6222128;28;20054;-74
2022/01/19 04:10:12;;;;;;;25.33;7.65;;;;;;;3.28;100.00;102547.84;6221876;28;20054;-75
2022/01/19 04:13:25;;;;;;;14.07;5.40;;;;;;;3.20;100.00;102541.72;6222063;28;20041;-74
2022/01/19 04:16:26;;;;;;;15.80;5.90;;;;;;;3.10;100.00;102534.72;6197700;28;20050;-74
2022/01/19 04:19:31;;;;;;;20.80;8.05;;;;;;;3.07;100.00;102519.13;6197857;28;20077;-74
2022/01/19 04:22:32;;;;;;;18.33;5.78;;;;;;;2.97;100.00;102509.53;6197368;28;20185;-73
2022/01/19 04:25:35;;;;;;;18.45;5.78;;;;;;;2.89;100.00;102512.06;6206045;28;20056;-75
2022/01/19 04:28:37;;;;;;;13.05;5.70;;;;;;;2.87;100.00;102513.81;6226801;28;20041;-74
2022/01/19 04:31:39;;;;;;;15.43;6.28;;;;;;;2.83;100.00;102500.78;6231433;28;20053;-74
2022/01/19 04:34:42;;;;;;;12.35;5.95;;;;;;;2.78;100.00;102488.66;6223864;28;20128;-74
2022/01/19 04:38:00;;;;;;;17.75;6.47;;;;;;;2.62;100.00;102475.53;6221415;28;20053;-74
2022/01/19 04:44:38;;;;;;;15.52;5.13;;;;;;;2.56;100.00;102466.00;6221034;28;20141;-74
2022/01/19 04:48:10;;;;;;;14.45;5.07;;;;;;;2.50;100.00;102452.97;6221421;28;20104;-74
2022/01/19 04:54:51;;;;;;;17.98;6.55;;;;;;;2.46;100.00;102440.84;6221585;28;20137;-74
2022/01/19 05:04:37;;;;;;;19.83;5.93;;;;;;;2.27;100.00;102442.38;6233890;28;20046;-74
2022/01/19 05:07:42;;;;;;;11.27;4.65;;;;;;;2.20;100.00;102436.28;6233303;28;20096;-73
2022/01/19 05:14:04;;;;;;;13.57;4.55;;;;;;;2.15;100.00;102425.03;6232194;28;20433;-74
2022/01/19 05:17:06;;;;;;;15.18;4.97;;;;;;;2.11;100.00;102419.78;6236958;28;20646;-74
2022/01/19 05:20:09;;;;;;;10.10;5.18;;;;;;;2.05;100.00;102419.75;6227518;28;20050;-74
2022/01/19 05:23:11;;;;;;;15.70;5.05;;;;;;;2.06;100.00;102404.19;6225846;28;20046;-74
2022/01/19 05:26:12;;;;;;;16.20;4.63;;;;;;;2.08;100.00;102402.47;6224408;28;20057;-74
2022/01/19 05:29:15;;;;;;;14.32;4.45;;;;;;;2.02;100.00;102398.09;6201402;28;20058;-74
2022/01/19 05:32:17;;;;;;;11.10;4.40;;;;;;;2.00;100.00;102406.75;6200661;28;20061;-74
2022/01/19 05:35:18;;;;;;;8.07;4.90;;;;;;;1.97;100.00;102394.63;6201016;28;20062;-73
2022/01/19 05:38:20;;;;;;;13.60;4.30;;;;;;;1.93;100.00;102377.28;6201133;28;20058;-73
2022/01/19 05:41:22;;;;;;;10.23;4.13;;;;;;;1.88;100.00;102372.94;6200466;28;20042;-74
2022/01/19 05:44:25;;;;;;;14.02;4.28;;;;;;;1.85;100.00;102373.75;6201153;28;20140;-74
2022/01/19 05:47:26;;;;;;;8.85;3.75;;;;;;;1.89;100.00;102362.56;6200601;28;20050;-74
2022/01/19 05:50:27;;;;;;;8.30;3.08;;;;;;;1.87;100.00;102353.06;6200882;28;20139;-74
2022/01/19 05:53:29;;;;;;;7.70;4.05;;;;;;;1.84;100.00;102366.84;6200765;28;20054;-73
2022/01/19 05:56:30;;;;;;;8.43;3.35;;;;;;;1.84;100.00;102356.47;6202179;28;20057;-74
2022/01/19 05:59:33;;;;;;;13.68;3.70;;;;;;;1.90;100.00;102359.09;6200492;28;20047;-74
2022/01/19 06:02:34;;;;;;;5.50;2.85;;;;;;;1.84;100.00;102355.59;6200040;28;20050;-74
2022/01/19 06:05:36;;;;;;;9.02;3.53;;;;;;;1.78;100.00;102369.41;6200240;28;20425;-74
2022/01/19 06:08:42;;;;;;;6.75;3.53;;;;;;;1.77;100.00;102375.41;6200297;28;20518;-74
2022/01/19 06:11:44;;;;;;;7.93;3.53;;;;;;;1.85;100.00;102372.91;6200211;28;20144;-74
2022/01/19 06:14:46;;;;;;;8.38;2.72;;;;;;;1.87;100.00;102356.50;6199790;28;20058;-73
2022/01/19 06:17:48;;;;;;;8.57;3.10;;;;;;;1.90;100.00;102361.69;6199445;28;20058;-73
2022/01/19 06:20:50;;;;;;;5.78;3.00;;;;;;;1.88;100.00;102357.38;6199793;28;20065;-73
2022/01/19 06:23:51;;;;;;;6.60;3.40;;;;;;;1.89;100.00;102351.31;6206694;28;20057;-74
2022/01/19 06:26:52;;;;;;;7.18;2.47;;;;;;;1.89;100.00;102351.31;6217060;28;20418;-73
2022/01/19 06:29:55;;;;;;;4.10;2.53;;;;;;;1.86;100.00;102339.19;6223450;28;20046;-73
2022/01/19 06:32:56;;;;;;;12.35;2.97;;;;;;;1.84;100.00;102334.88;6223316;28;20053;-73
2022/01/19 06:35:57;;;;;;;6.32;3.10;;;;;;;1.78;100.00;102314.97;6223516;28;20449;-74
2022/01/19 06:38:59;;;;;;;8.30;3.38;;;;;;;1.75;100.00;102314.94;6223926;28;20061;-74
2022/01/19 06:42:00;;;;;;;6.75;3.10;;;;;;;1.74;100.00;102303.69;6223426;28;20472;-73
2022/01/19 06:45:04;;;;;;;6.88;2.83;;;;;;;1.69;100.00;102307.97;6223817;28;20490;-74
2022/01/19 06:48:06;;;;;;;6.65;2.58;;;;;;;1.66;100.00;102309.66;6223732;28;20046;-74
2022/01/19 06:51:07;;;;;;;8.05;3.28;;;;;;;1.64;100.00;102309.66;6223628;28;20056;-73
2022/01/19 06:54:09;;;;;;;7.05;2.78;;;;;;;1.62;100.00;102298.41;6223402;28;20058;-74
2022/01/19 06:57:10;;;;;;;7.45;2.65;;;;;;;1.60;100.00;102294.09;6220216;28;20057;-73
2022/01/19 07:00:15;;;;;;;10.00;2.95;;;;;;;1.56;100.00;102290.59;6222901;28;20052;-72
2022/01/19 07:03:16;;;;;;;6.30;3.35;;;;;;;1.48;100.00;102280.16;6223213;28;20046;-73
2022/01/19 07:06:17;;;;;;;5.50;2.75;;;;;;;1.40;100.00;102289.56;6221622;28;20053;-73
2022/01/19 07:09:19;;;;;;;7.85;3.00;;;;;;;1.42;100.00;102285.28;6219848;28;20524;-72
2022/01/19 07:12:20;;;;;;;6.97;3.30;;;;;;;1.43;100.00;102273.19;6221723;28;20437;-72
2022/01/19 07:15:23;;;;;;;8.57;3.10;;;;;;;1.45;100.00;102269.78;6198457;28;20573;-73
2022/01/19 07:18:24;;;;;;;6.40;3.45;;;;;;;1.37;100.00;102274.03;6198851;28;20490;-73
2022/01/19 07:21:26;;;;;;;8.80;3.63;;;;;;;1.36;100.00;102267.06;6206285;28;20064;-73
2022/01/19 07:24:27;;;;;;;5.60;2.67;;;;;;;1.32;100.00;102262.75;6219697;28;20046;-73
2022/01/19 07:27:29;;;;;;;5.82;2.58;;;;;;;1.26;100.00;102265.25;6221821;28;20466;-73
2022/01/19 07:30:32;;;;;;;4.75;2.33;;;;;;;1.23;100.00;102270.44;6217863;28;20054;-73
2022/01/19 07:33:34;;;;;;;5.18;2.80;;;;;;;1.19;100.00;102273.84;6220938;28;20056;-73
2022/01/19 07:36:35;;;;;;;4.50;2.53;;;;;;;1.17;100.00;102279.00;6222327;28;20129;-73
2022/01/19 07:39:37;;;;;;;6.10;2.38;;;;;;;1.19;100.00;102269.53;6213991;28;20425;-72
2022/01/19 07:42:38;;;;;;;5.38;2.80;;;;;;;1.23;100.00;102260.94;6220928;28;20053;-72
2022/01/19 07:45:41;;;;;;;6.47;2.90;;;;;;;1.24;100.00;102259.22;6220917;28;20072;-72
2022/01/19 07:48:42;;;;;;;6.60;2.97;;;;;;;1.18;100.00;102262.63;6221567;28;20596;-72
2022/01/19 07:51:44;;;;;;;9.82;3.05;;;;;;;1.21;100.00;102272.13;6221988;28;20060;-72
2022/01/19 07:54:45;;;;;;;10.45;2.97;;;;;;;1.26;100.00;102268.72;6222222;28;20851;-74
2022/01/19 07:57:50;;;;;;;6.93;3.40;;;;;;;1.31;100.00;102261.00;6219355;28;20053;-74
2022/01/19 08:00:53;;;;;;;6.20;3.03;;;;;;;1.44;100.00;102254.22;6215300;28;20085;-71
2022/01/19 08:03:54;;;;;;;7.60;3.42;;;;;;;1.52;100.00;102258.59;6204589;28;20057;-73
2022/01/19 08:06:56;;;;;;;7.07;2.85;;;;;;;1.60;100.00;102257.81;6203140;28;20049;-73
2022/01/19 08:09:57;;;;;;;10.02;3.35;;;;;;;1.65;100.00;102256.13;6219495;28;20433;-73
2022/01/19 08:13:02;;;;;;;10.00;3.47;;;;;;;1.80;100.00;102248.44;6222340;28;20049;-74
2022/01/19 08:16:05;;;;;;;4.57;2.80;;;;;;;1.82;100.00;102238.97;6221746;28;20073;-72
2022/01/19 08:19:07;;;;;;;10.05;2.67;;;;;;;1.79;100.00;102246.72;6207867;28;20057;-74
2022/01/19 08:22:08;;;;;;;15.40;3.03;;;;;;;1.87;100.00;102242.47;6197057;28;20399;-73
2022/01/19 08:25:10;;;;;;;9.00;3.22;;;;;;;1.88;100.00;102249.38;6197823;28;20046;-72
2022/01/19 08:28:11;;;;;;;7.75;3.15;;;;;;;1.90;100.00;102249.38;6197729;28;20057;-72
2022/01/19 08:31:14;;;;;;;6.78;3.15;;;;;;;1.90;100.00;102257.16;6213920;28;20053;-71
2022/01/19 08:34:17;;;;;;;5.32;3.25;;;;;;;1.96;100.00;102252.03;6219001;28;20050;-70
2022/01/19 08:37:18;;;;;;;10.90;2.72;;;;;;;1.93;100.00;102249.41;6221749;28;20060;-70
2022/01/19 08:40:25;;;;;;;5.38;2.67;;;;;;;1.90;100.00;102241.59;6224383;28;20057;-70
2022/01/19 08:43:27;;;;;;;8.57;3.55;;;;;;;1.93;100.00;102229.53;6226391;28;20057;-70
2022/01/19 08:46:29;;;;;;;5.13;3.00;;;;;;;2.01;100.00;102224.41;6226492;28;20060;-72
2022/01/19 08:49:31;;;;;;;8.63;3.20;;;;;;;2.00;100.00;102217.50;6225055;28;20054;-70
2022/01/19 08:52:32;;;;;;;9.25;3.47;;;;;;;2.00;100.00;102222.66;6226028;28;20073;-71
2022/01/19 08:55:34;;;;;;;7.85;3.42;;;;;;;2.01;100.00;102219.22;6226050;28;20068;-71
2022/01/19 08:58:35;;;;;;;4.57;2.92;;;;;;;2.00;100.00;102218.34;6226109;28;20054;-71
2022/01/19 09:01:38;;;;;;;7.88;2.97;;;;;;;1.98;100.00;102219.19;6225464;28;20053;-70
2022/01/19 09:04:39;;;;;;;8.20;3.80;;;;;;;1.98;100.00;102208.81;6225833;28;20053;-70
2022/01/19 09:07:41;;;;;;;7.20;3.70;;;;;;;1.98;100.00;102191.53;6225835;28;20050;-70
2022/01/19 09:10:45;;;;;;;7.90;3.72;;;;;;;2.02;100.00;102190.69;6225643;28;20053;-70
2022/01/19 09:13:48;;;;;;;4.75;2.80;;;;;;;2.05;100.00;102187.25;6225711;28;20488;-70
2022/01/19 09:16:51;;;;;;;8.32;4.00;;;;;;;2.06;100.00;102186.41;6225799;28;20057;-71
2022/01/19 09:19:52;;;;;;;4.55;2.97;;;;;;;2.07;100.00;102187.25;6202386;28;20050;-71
2022/01/19 09:22:54;;;;;;;8.05;2.97;;;;;;;2.13;100.00;102180.38;6208669;28;20045;-70
2022/01/19 09:25:55;;;;;;;5.35;3.08;;;;;;;2.14;100.00;102189.03;6225267;28;20046;-71
2022/01/19 09:28:56;;;;;;;7.53;3.75;;;;;;;2.13;100.00;102179.50;6225162;28;20494;-71
2022/01/19 09:32:01;;;;;;;6.80;3.60;;;;;;;2.11;100.00;102163.94;6224902;28;20054;-70
2022/01/19 09:35:07;;;;;;;7.93;4.10;;;;;;;2.10;100.00;102157.03;6225340;28;20176;-70
2022/01/19 09:38:08;;;;;;;6.43;3.88;;;;;;;2.11;100.00;102150.13;6225321;28;20054;-70
2022/01/19 09:41:11;;;;;;;9.23;4.50;;;;;;;2.14;100.00;102134.56;6224874;28;20061;-71
2022/01/19 09:44:12;;;;;;;10.57;4.80;;;;;;;2.21;100.00;102138.91;6224705;28;20050;-70
2022/01/19 09:47:15;;;;;;;8.02;4.65;;;;;;;2.21;100.00;102121.63;6224512;28;20050;-71
2022/01/19 09:50:16;;;;;;;9.50;5.25;;;;;;;2.20;100.00;102117.31;6224275;28;20057;-70
2022/01/19 09:53:18;;;;;;;9.82;4.68;;;;;;;2.24;100.00;102116.44;6224958;28;20042;-70
2022/01/19 09:56:20;;;;;;;11.50;5.00;;;;;;;2.27;100.00;102111.28;6224729;28;20050;-71
2022/01/19 09:59:22;;;;;;;17.95;5.32;;;;;;;2.32;100.00;102110.41;6224541;28;20079;-71
2022/01/19 10:02:25;;;;;;;9.73;5.43;;;;;;;2.31;100.00;102113.88;6224771;28;20054;-71
2022/01/19 10:05:26;;;;;;;8.93;4.53;;;;;;;2.29;100.00;102100.91;6224806;28;20063;-71
2022/01/19 10:08:29;;;;;;;9.70;5.40;;;;;;;2.35;100.00;102093.13;6204200;28;20080;-71
2022/01/19 10:16:58;;;;;;;13.40;5.07;;;;;;;2.33;100.00;102089.69;6200060;28;20046;-71
2022/01/19 10:18:23;;;;;;;13.20;5.53;;;;;;;2.41;100.00;102089.72;6211327;28;20059;-71
2022/01/19 10:21:24;;;;;;;10.23;5.28;;;;;;;2.41;100.00;102087.09;6199707;28;20077;-70
2022/01/19 10:24:41;;;;;;;9.73;4.85;;;;;;;2.45;100.00;102079.34;6216879;28;20046;-70
2022/01/19 10:27:45;;;;;;;11.30;5.80;;;;;;;2.46;100.00;102070.69;6224068;28;20490;-72
2022/01/19 10:30:46;;;;;;;12.02;5.05;;;;;;;2.43;100.00;102055.09;6223373;28;20060;-71
2022/01/19 10:34:09;;;;;;;10.70;5.53;;;;;;;2.44;100.00;102058.56;6223761;28;20053;-71
2022/01/19 10:37:10;;;;;;;14.30;6.95;;;;;;;2.47;100.00;102059.44;6223784;28;20058;-70
2022/01/19 10:40:18;;;;;;;11.60;5.68;;;;;;;2.47;100.00;102043.88;6223427;28;20065;-70
2022/01/19 10:43:30;;;;;;;11.98;5.80;;;;;;;2.49;100.00;102049.03;6223436;28;20049;-70
2022/01/19 10:46:34;;;;;;;14.43;6.93;;;;;;;2.49;100.00;102033.47;6223088;28;20057;-70
2022/01/19 10:49:53;;;;;;;14.10;6.07;;;;;;;2.56;100.00;102034.38;6221737;28;20132;-70
2022/01/19 10:52:56;;;;;;;12.77;6.50;;;;;;;2.61;100.00;102025.72;6223421;28;20042;-71
2022/01/19 10:55:57;;;;;;;14.95;7.57;;;;;;;2.57;100.00;102028.31;6222911;28;20057;-71
2022/01/19 10:59:00;;;;;;;14.43;7.75;;;;;;;2.56;100.00;102004.09;6223543;28;20050;-71
2022/01/19 11:02:03;;;;;;;17.30;7.30;;;;;;;2.62;100.00;102004.06;6222434;28;20057;-71
2022/01/19 11:05:07;;;;;;;14.32;6.90;;;;;;;2.65;100.00;101978.13;6223289;28;20073;-71
2022/01/19 11:08:09;;;;;;;13.50;7.28;;;;;;;2.70;100.00;101980.72;6222460;28;20053;-70
2022/01/19 11:11:11;;;;;;;14.52;7.65;;;;;;;2.69;100.00;101972.06;6222580;28;20061;-70
2022/01/19 11:14:15;;;;;;;17.55;7.65;;;;;;;2.71;100.00;101970.34;6222913;28;20061;-71
2022/01/19 11:17:17;;;;;;;18.40;7.63;;;;;;;2.72;100.00;101966.00;6221076;28;20049;-70
2022/01/19 11:20:23;;;;;;;20.63;9.05;;;;;;;2.74;100.00;101953.91;6222789;28;20049;-70
2022/01/19 11:23:32;;;;;;;18.98;7.97;;;;;;;2.77;100.00;101944.38;6222688;28;20046;-71
2022/01/19 11:26:35;;;;;;;16.80;8.93;;;;;;;2.80;100.00;101930.53;6222914;28;20054;-70
2022/01/19 11:29:38;;;;;;;16.25;7.45;;;;;;;2.86;100.00;101930.53;6222475;28;20128;-72
2022/01/19 11:32:40;;;;;;;14.82;7.35;;;;;;;2.94;100.00;101901.94;6222665;28;20045;-70
2022/01/19 11:35:47;;;;;;;14.25;7.68;;;;;;;2.90;100.00;101901.06;6222397;28;20517;-71
2022/01/19 11:38:50;;;;;;;16.58;8.10;;;;;;;2.87;100.00;101892.44;6222585;28;20510;-71
2022/01/19 11:41:54;;;;;;;18.75;7.85;;;;;;;2.89;100.00;101891.56;6222126;28;20480;-72
2022/01/19 11:44:55;;;;;;;13.57;7.70;;;;;;;2.91;100.00;101882.03;6222368;28;20046;-71
2022/01/19 11:48:13;;;;;;;17.02;8.27;;;;;;;2.86;100.00;101870.81;6222163;28;20045;-71
2022/01/19 11:51:27;;;;;;;17.80;8.10;;;;;;;2.94;100.00;101844.81;6222082;28;20057;-70
2022/01/19 11:54:33;;;;;;;17.25;8.40;;;;;;;2.93;100.00;101856.94;6222269;28;20049;-70
2022/01/19 11:57:34;;;;;;;15.00;7.25;;;;;;;2.93;100.00;101838.75;6222157;28;20065;-71
2022/01/19 12:00:36;;;;;;;15.20;6.57;;;;;;;2.94;100.00;101839.63;6221964;28;20054;-71
2022/01/19 12:03:41;;;;;;;13.10;6.10;;;;;;;2.95;100.00;101838.75;6222192;28;20045;-73
2022/01/19 12:06:45;;;;;;;14.80;7.15;;;;;;;2.95;100.00;101837.03;6222363;28;20053;-70
2022/01/19 12:09:56;;;;;;;17.88;6.93;;;;;;;2.97;100.00;101824.03;6221894;28;20449;-71
2022/01/19 12:13:26;;;;;;;14.13;6.30;;;;;;;2.98;100.00;101821.41;6222687;28;20524;-71
2022/01/19 12:16:49;;;;;;;14.70;6.88;;;;;;;3.07;100.00;101822.25;6226448;28;20180;-72
2022/01/19 12:19:51;;;;;;;16.40;6.90;;;;;;;3.03;100.00;101811.00;6203015;28;20073;-71
2022/01/19 12:23:27;;;;;;;12.18;7.40;;;;;;;3.01;100.00;101812.75;6216874;28;20229;-72
2022/01/19 12:26:51;;;;;;;14.93;6.75;;;;;;;3.01;100.00;101792.84;6227180;28;20050;-73
2022/01/19 12:30:02;;;;;;;15.95;7.07;;;;;;;3.02;100.00;101788.53;6226545;28;20053;-72
2022/01/19 12:33:04;;;;;;;15.98;6.60;;;;;;;3.03;100.00;101779.84;6226186;28;20053;-72
2022/01/19 12:36:42;;;;;;;19.83;7.60;;;;;;;3.02;100.00;101775.53;6226332;28;20046;-72
2022/01/19 12:39:45;;;;;;;17.27;6.90;;;;;;;3.07;100.00;101771.16;6226323;28;20050;-73
2022/01/19 12:42:49;;;;;;;17.80;8.07;;;;;;;3.05;100.00;101770.34;6226475;28;20536;-73
2022/01/19 12:45:52;;;;;;;16.17;7.03;;;;;;;3.06;100.00;101759.06;6226241;28;20524;-72
2022/01/19 12:48:55;;;;;;;16.85;7.07;;;;;;;3.07;100.00;101759.94;6226125;28;20050;-72
2022/01/19 12:51:57;;;;;;;15.35;8.23;;;;;;;3.07;100.00;101762.53;6226072;28;20057;-73
2022/01/19 12:55:10;;;;;;;15.70;6.60;;;;;;;3.01;100.00;101753.91;6226188;28;20053;-73
2022/01/19 12:58:17;;;;;;;12.43;5.82;;;;;;;3.01;100.00;101758.25;6226186;28;20053;-73
2022/01/19 13:01:18;;;;;;;15.35;7.25;;;;;;;3.02;100.00;101744.38;6225598;28;20049;-72
2022/01/19 13:04:24;;;;;;;23.30;7.18;;;;;;;3.02;100.00;101726.19;6226089;28;20049;-73
2022/01/19 13:07:27;;;;;;;18.08;7.28;;;;;;;3.00;100.00;101717.56;6225732;28;20424;-73
2022/01/19 13:10:40;;;;;;;13.73;6.78;;;;;;;2.98;100.00;101703.72;6225807;28;20054;-73
2022/01/19 13:13:50;;;;;;;18.67;7.20;;;;;;;2.99;100.00;101695.06;6224710;28;20076;-73
2022/01/19 13:16:54;;;;;;;13.93;6.88;;;;;;;3.00;100.00;101689.88;6225501;28;20053;-72
2022/01/19 13:20:07;;;;;;;15.10;6.70;;;;;;;2.92;100.00;101683.88;6204286;28;20162;-73
2022/01/19 13:23:10;;;;;;;16.10;6.60;;;;;;;2.92;100.00;101689.06;6218093;28;20050;-74
2022/01/19 13:26:13;;;;;;;13.05;5.68;;;;;;;2.96;100.00;101685.56;6224575;28;20052;-73
2022/01/19 13:29:23;;;;;;;17.92;6.90;;;;;;;2.93;100.00;101679.53;6225312;28;20529;-73
2022/01/19 13:32:27;;;;;;;15.82;6.57;;;;;;;2.92;100.00;101670.88;6225075;28;20061;-72
2022/01/19 13:35:29;;;;;;;18.77;7.82;;;;;;;2.93;100.00;101663.94;6225416;28;20429;-73
2022/01/19 13:38:30;;;;;;;16.30;7.00;;;;;;;2.90;100.00;101669.16;6225299;28;20053;-73
2022/01/19 13:41:33;;;;;;;20.33;6.70;;;;;;;2.91;100.00;101657.94;6225018;28;20050;-73
2022/01/19 13:44:37;;;;;;;16.83;6.05;;;;;;;2.90;100.00;101662.22;6225153;28;20046;-74
2022/01/19 13:47:57;;;;;;;15.43;6.50;;;;;;;2.96;100.00;101656.16;6223460;28;20060;-73
2022/01/19 13:50:59;;;;;;;;;;;;;;;2.93;100.00;101644.03;6225077;28;20050;-73
2022/01/19 13:54:02;;;;;;;10.27;5.93;;;;;;;2.99;100.00;101638.78;6224518;28;20380;-73
2022/01/19 13:57:05;;;;;;;20.38;6.25;;;;;;;2.96;100.00;101633.66;6224717;28;20065;-73
2022/01/19 14:00:12;;;;;;;16.45;6.28;;;;;;;2.99;100.00;101628.41;6224664;28;20073;-73
2022/01/19 14:03:13;;;;;;;17.80;7.32;;;;;;;2.98;100.00;101613.72;6224381;28;20634;-74
2022/01/19 14:06:25;;;;;;;14.20;5.93;;;;;;;2.97;100.00;101596.41;6225008;28;20054;-73
2022/01/19 14:09:31;;;;;;;19.13;7.95;;;;;;;2.92;100.00;101580.03;6224307;28;20188;-72
2022/01/19 14:12:34;;;;;;;22.40;7.10;;;;;;;2.95;100.00;101573.94;6224471;28;20054;-73
2022/01/19 14:15:40;;;;;;;16.45;5.63;;;;;;;3.00;100.00;101579.97;6224330;28;20489;-72
2022/01/19 14:18:41;;;;;;;16.85;7.35;;;;;;;3.02;100.00;101571.28;6223233;28;20461;-73
2022/01/19 14:22:11;;;;;;;18.38;7.13;;;;;;;3.12;100.00;101560.78;6223931;28;20050;-73
2022/01/19 14:25:17;;;;;;;16.63;7.25;;;;;;;3.06;100.00;101561.72;6217444;28;20132;-73
2022/01/19 14:28:21;;;;;;;11.63;5.82;;;;;;;3.03;100.00;101535.78;6224187;28;20058;-75
2022/01/19 14:31:22;;;;;;;18.63;8.00;;;;;;;3.00;100.00;101538.41;6223182;28;20050;-73
2022/01/19 14:34:38;;;;;;;25.13;7.68;;;;;;;3.04;100.00;101524.50;6223735;28;20050;-73
2022/01/19 14:37:56;;;;;;;17.33;5.53;;;;;;;3.02;100.00;101506.34;6222914;28;20425;-73
2022/01/19 14:41:04;;;;;;;12.75;4.97;;;;;;;2.98;100.00;101496.88;6222047;28;20046;-72
2022/01/19 14:44:19;;;;;;;13.77;7.13;;;;;;;3.00;100.00;101505.53;6207167;28;20509;-72
2022/01/19 14:47:35;;;;;;;14.63;7.80;;;;;;;3.04;100.00;101502.03;6215405;28;20057;-72
2022/01/19 14:50:38;;;;;;;19.60;6.78;;;;;;;3.02;100.00;101484.72;6199212;28;20055;-73
2022/01/19 14:53:39;;;;;;;14.10;7.43;;;;;;;3.04;100.00;101476.06;6212233;28;20145;-73
2022/01/19 14:56:43;;;;;;;23.08;7.55;;;;;;;3.03;100.00;101478.66;6204571;28;20054;-72